createdAt,value
2022-08-09T00:06:18.065Z,16.40
2022-08-09T00:10:32.101Z,16.21
2022-08-09T00:15:59.526Z,15.86
2022-08-09T00:21:09.053Z,16.37
2022-08-09T00:26:14.093Z,16.42
2022-08-09T00:31:57.505Z,15.93
2022-08-09T00:36:47.355Z,16.27
2022-08-09T00:44:19.391Z,15.85
2022-08-09T00:47:20.506Z,15.89
2022-08-09T00:52:30.060Z,15.40
2022-08-09T00:57:35.809Z,15.20
2022-08-09T01:02:49.759Z,15.00
2022-08-09T01:08:01.933Z,14.96
2022-08-09T01:13:16.895Z,15.20
2022-08-09T01:18:30.139Z,14.92
2022-08-09T01:24:03.190Z,15.16
2022-08-09T01:29:15.460Z,14.99
2022-08-09T01:34:24.634Z,14.75
2022-08-09T01:39:35.737Z,14.86
2022-08-09T01:44:44.772Z,14.29
2022-08-09T01:49:54.613Z,14.32
2022-08-09T01:55:02.337Z,14.16
2022-08-09T02:00:34.554Z,14.37
2022-08-09T02:06:03.271Z,14.76
2022-08-09T02:11:13.422Z,14.91
2022-08-09T02:16:33.813Z,14.57
2022-08-09T02:21:57.031Z,14.27
2022-08-09T02:27:07.295Z,14.28
2022-08-09T02:32:18.735Z,14.26
2022-08-09T02:37:31.482Z,14.34
2022-08-09T02:42:41.574Z,14.24
2022-08-09T02:47:59.151Z,14.31
2022-08-09T02:53:08.148Z,14.07
2022-08-09T02:58:32.589Z,13.63
2022-08-09T03:04:18.396Z,13.65
2022-08-09T03:09:11.929Z,13.79
2022-08-09T03:14:19.670Z,13.91
2022-08-09T03:19:57.775Z,13.59
2022-08-09T03:25:20.898Z,13.48
2022-08-09T03:30:33.378Z,13.44
2022-08-09T03:36:11.749Z,13.48
2022-08-09T03:41:07.194Z,13.72
2022-08-09T03:46:19.616Z,13.52
2022-08-09T03:51:55.979Z,13.49
2022-08-09T03:56:55.063Z,13.66
2022-08-09T04:02:03.963Z,13.78
2022-08-09T04:07:17.599Z,13.71
2022-08-09T04:12:41.388Z,13.80
2022-08-09T04:17:50.043Z,13.70
2022-08-09T04:22:59.720Z,14.04
2022-08-09T04:28:05.070Z,14.16
2022-08-09T04:33:10.578Z,14.42
2022-08-09T04:38:18.211Z,14.62
2022-08-09T04:43:25.297Z,15.85
2022-08-09T04:48:33.492Z,16.64
2022-08-09T04:53:41.303Z,18.00
2022-08-09T04:58:47.633Z,19.31
2022-08-09T05:03:58.710Z,18.46
2022-08-09T05:09:10.761Z,17.92
2022-08-09T05:14:17.429Z,20.06
2022-08-09T05:19:25.506Z,19.64
2022-08-09T05:24:33.822Z,21.34
2022-08-09T05:29:41.523Z,21.34
2022-08-09T05:34:46.540Z,21.54
2022-08-09T05:39:54.997Z,22.68
2022-08-09T05:45:01.183Z,23.72
2022-08-09T05:50:30.921Z,24.39
2022-08-09T05:55:35.211Z,26.11
2022-08-09T06:00:43.922Z,24.74
2022-08-09T06:05:54.672Z,23.04
2022-08-09T06:11:17.417Z,22.57
2022-08-09T06:16:23.558Z,21.70
2022-08-09T06:21:58.899Z,21.98
2022-08-09T06:27:03.620Z,22.08
2022-08-09T06:32:53.429Z,21.87
2022-08-09T06:37:53.364Z,21.87
2022-08-09T06:43:15.209Z,22.54
2022-08-09T06:48:30.093Z,21.70
2022-08-09T06:53:38.682Z,22.74
2022-08-09T07:00:49.735Z,22.69
2022-08-09T07:04:12.224Z,23.43
2022-08-09T07:09:54.873Z,26.55
2022-08-09T07:14:53.655Z,25.55
2022-08-09T07:19:58.740Z,25.90
2022-08-09T07:25:09.667Z,25.71
2022-08-09T07:30:18.295Z,24.88
2022-08-09T07:35:23.739Z,25.76
2022-08-09T07:40:46.206Z,26.70
2022-08-09T07:46:01.850Z,25.89
2022-08-09T07:52:03.706Z,26.57
2022-08-09T07:56:35.992Z,26.68
2022-08-09T08:01:52.931Z,27.74
2022-08-09T08:07:09.188Z,27.29
2022-08-09T08:12:27.751Z,27.08
2022-08-09T08:17:55.268Z,27.50
2022-08-09T08:23:16.737Z,27.75
2022-08-09T08:28:26.184Z,26.63
2022-08-09T08:33:52.268Z,26.99
2022-08-09T08:39:02.549Z,27.55
2022-08-09T08:44:07.688Z,28.30
2022-08-09T08:49:19.098Z,27.84
2022-08-09T08:54:28.145Z,27.62
2022-08-09T08:59:47.099Z,26.80
2022-08-09T09:04:57.825Z,27.12
2022-08-09T09:10:12.106Z,27.55
2022-08-09T09:15:28.307Z,27.88
2022-08-09T09:20:39.032Z,27.43
2022-08-09T09:26:03.274Z,27.20
2022-08-09T09:32:04.599Z,27.89
2022-08-09T09:36:54.053Z,26.59
2022-08-09T09:42:00.554Z,27.15
2022-08-09T09:47:10.945Z,26.55
2022-08-09T09:52:37.007Z,26.56
2022-08-09T09:58:02.984Z,25.85
2022-08-09T10:03:11.650Z,26.93
2022-08-09T10:08:27.904Z,28.43
2022-08-09T10:13:45.463Z,27.35
2022-08-09T10:19:02.912Z,27.56
2022-08-09T10:24:25.440Z,29.01
2022-08-09T10:30:30.076Z,28.45
2022-08-09T10:35:13.224Z,26.73
2022-08-09T10:40:32.518Z,27.28
2022-08-09T10:45:49.402Z,27.21
2022-08-09T10:51:18.331Z,26.85
2022-08-09T10:56:28.770Z,26.83
2022-08-09T11:03:17.972Z,26.60
2022-08-09T11:07:56.933Z,26.80
2022-08-09T11:13:50.296Z,27.00
2022-08-09T11:18:49.330Z,27.09
2022-08-09T11:24:13.598Z,27.40
2022-08-09T11:30:04.388Z,28.13
2022-08-09T11:35:19.824Z,28.19
2022-08-09T11:40:34.199Z,27.95
2022-08-09T11:45:43.680Z,28.27
2022-08-09T11:53:01.069Z,27.37
2022-08-09T11:56:42.484Z,27.82
2022-08-09T12:02:18.215Z,27.19
2022-08-09T12:07:21.010Z,28.33
2022-08-09T12:12:28.739Z,28.09
2022-08-09T12:17:44.556Z,29.13
2022-08-09T12:23:01.832Z,27.98
2022-08-09T12:29:00.253Z,28.15
2022-08-09T12:33:59.005Z,27.75
2022-08-09T12:39:20.513Z,27.22
2022-08-09T12:44:26.322Z,27.35
2022-08-09T12:49:52.915Z,27.22
2022-08-09T12:56:11.478Z,27.45
2022-08-09T13:00:29.604Z,26.90
2022-08-09T13:05:51.531Z,26.95
2022-08-09T13:11:23.144Z,27.16
2022-08-09T13:16:49.518Z,27.81
2022-08-09T13:22:37.083Z,28.08
2022-08-09T13:27:55.251Z,28.46
2022-08-09T13:33:02.786Z,27.99
2022-08-09T13:38:32.999Z,27.24
2022-08-09T13:43:40.586Z,27.01
2022-08-09T13:48:46.586Z,27.13
2022-08-09T13:53:53.605Z,27.08
2022-08-09T13:59:02.812Z,27.04
2022-08-09T14:04:11.623Z,27.22
2022-08-09T14:09:24.962Z,27.16
2022-08-09T14:14:37.058Z,27.95
2022-08-09T14:19:42.480Z,27.79
2022-08-09T14:24:54.096Z,28.39
2022-08-09T14:30:35.888Z,28.24
2022-08-09T14:35:27.948Z,28.80
2022-08-09T14:41:02.372Z,29.26
2022-08-09T14:46:46.158Z,28.69
2022-08-09T14:51:51.613Z,27.89
2022-08-09T14:57:03.638Z,28.07
2022-08-09T15:02:11.204Z,27.42
2022-08-09T15:07:17.518Z,26.99
2022-08-09T15:12:24.569Z,27.07
2022-08-09T15:17:41.482Z,27.27
2022-08-09T15:22:47.753Z,27.00
2022-08-09T15:27:56.519Z,27.25
2022-08-09T15:33:08.690Z,27.10
2022-08-09T15:38:21.521Z,27.26
2022-08-09T15:43:36.696Z,26.94
2022-08-09T15:48:52.874Z,26.96
2022-08-09T15:54:20.996Z,27.10
2022-08-09T15:59:37.065Z,27.08
2022-08-09T16:04:45.111Z,27.18
2022-08-09T16:10:04.195Z,27.08
2022-08-09T16:16:11.678Z,27.06
2022-08-09T16:20:41.692Z,27.27
2022-08-09T16:25:49.798Z,27.37
2022-08-09T16:30:58.693Z,27.15
2022-08-09T16:36:13.180Z,27.20
2022-08-09T16:42:02.171Z,27.38
2022-08-09T16:46:54.906Z,27.06
2022-08-09T16:52:10.058Z,27.69
2022-08-09T16:57:14.979Z,27.52
2022-08-09T17:02:23.304Z,27.85
2022-08-09T17:08:43.017Z,27.61
2022-08-09T17:12:58.251Z,27.11
2022-08-09T17:18:03.188Z,27.14
2022-08-09T17:23:14.772Z,26.89
2022-08-09T17:28:22.224Z,26.85
2022-08-09T17:33:29.308Z,26.66
2022-08-09T17:38:57.616Z,26.37
2022-08-09T17:44:47.154Z,26.45
2022-08-09T17:49:30.346Z,26.38
2022-08-09T17:54:38.438Z,25.99
2022-08-09T17:59:46.110Z,25.82
2022-08-09T18:05:16.778Z,25.56
2022-08-09T18:10:24.352Z,25.42
2022-08-09T18:16:05.477Z,25.38
2022-08-09T18:21:17.705Z,25.09
2022-08-09T18:26:26.648Z,25.08
2022-08-09T18:31:55.111Z,24.87
2022-08-09T18:36:57.223Z,24.73
2022-08-09T18:42:08.155Z,24.73
2022-08-09T18:47:23.389Z,24.64
2022-08-09T18:52:35.123Z,24.61
2022-08-09T18:57:44.859Z,24.36
2022-08-09T19:02:51.212Z,24.27
2022-08-09T19:08:09.747Z,23.94
2022-08-09T19:13:22.425Z,23.98
2022-08-09T19:18:45.602Z,23.27
2022-08-09T19:24:39.489Z,23.51
2022-08-09T19:29:20.797Z,23.51
2022-08-09T19:34:26.195Z,23.08
2022-08-09T19:40:02.801Z,22.92
2022-08-09T19:44:59.132Z,22.96
2022-08-09T19:50:07.640Z,22.72
2022-08-09T19:55:39.120Z,22.70
2022-08-09T20:00:57.091Z,22.65
2022-08-09T20:06:04.139Z,22.60
2022-08-09T20:11:09.138Z,21.86
2022-08-09T20:16:35.234Z,21.59
2022-08-09T20:21:57.021Z,21.65
2022-08-09T20:27:08.210Z,21.63
2022-08-09T20:32:42.075Z,21.86
2022-08-09T20:38:23.489Z,21.79
2022-08-09T20:43:17.997Z,21.71
2022-08-09T20:48:32.730Z,21.29
2022-08-09T20:53:39.075Z,20.82
2022-08-09T20:58:44.448Z,20.67
2022-08-09T21:05:49.266Z,20.38
2022-08-09T21:09:32.603Z,20.55
2022-08-09T21:14:46.136Z,20.45
2022-08-09T21:20:18.107Z,20.23
2022-08-09T21:25:38.163Z,20.02
2022-08-09T21:30:44.634Z,20.04
2022-08-09T21:35:52.893Z,19.81
2022-08-09T21:40:57.986Z,19.51
2022-08-09T21:46:03.978Z,19.40
2022-08-09T21:51:13.241Z,19.26
2022-08-09T21:56:43.552Z,19.34
2022-08-09T22:02:00.248Z,18.73
2022-08-09T22:07:09.771Z,19.17
2022-08-09T22:12:18.573Z,19.05
2022-08-09T22:17:23.993Z,19.25
2022-08-09T22:22:33.658Z,19.75
2022-08-09T22:27:38.881Z,19.06
2022-08-09T22:32:45.411Z,18.99
2022-08-09T22:38:07.163Z,18.71
2022-08-09T22:43:17.033Z,18.58
2022-08-09T22:48:38.386Z,18.57
2022-08-09T22:54:01.040Z,18.24
2022-08-09T22:59:56.800Z,18.34
2022-08-09T23:04:33.855Z,18.41
2022-08-09T23:09:46.886Z,18.18
2022-08-09T23:14:53.963Z,18.00
2022-08-09T23:20:06.388Z,17.93
2022-08-09T23:25:15.844Z,17.92
2022-08-09T23:30:21.553Z,17.96
2022-08-09T23:35:26.662Z,17.78
2022-08-09T23:40:34.285Z,17.46
2022-08-09T23:45:39.396Z,17.80
2022-08-09T23:50:44.527Z,17.56
2022-08-09T23:55:55.490Z,17.37
